createdAt,value
2017-08-25T00:00:12.274Z,0
2017-08-25T00:00:52.819Z,0
2017-08-25T00:01:33.352Z,0
2017-08-25T00:02:13.883Z,0
2017-08-25T00:02:54.421Z,0
2017-08-25T00:03:34.956Z,0
2017-08-25T00:04:15.489Z,0
2017-08-25T00:04:56.024Z,0
2017-08-25T00:05:36.563Z,0
2017-08-25T00:06:17.094Z,0
2017-08-25T00:06:57.633Z,0
2017-08-25T00:07:38.172Z,0
2017-08-25T00:08:18.712Z,0
2017-08-25T00:08:59.269Z,0
2017-08-25T00:09:39.769Z,0
2017-08-25T00:10:20.309Z,0
2017-08-25T00:11:00.850Z,0
2017-08-25T00:11:41.387Z,0
2017-08-25T00:12:21.918Z,0
2017-08-25T00:13:02.456Z,0
2017-08-25T00:13:43.023Z,0
2017-08-25T00:14:23.549Z,0
2017-08-25T00:15:04.091Z,0
2017-08-25T00:15:44.632Z,0
2017-08-25T00:16:25.162Z,0
2017-08-25T00:17:05.723Z,0
2017-08-25T00:17:46.240Z,0
2017-08-25T00:18:26.783Z,0
2017-08-25T00:19:07.324Z,0
2017-08-25T00:19:47.863Z,0
2017-08-25T00:20:28.413Z,0
2017-08-25T00:21:08.949Z,0
2017-08-25T00:21:49.489Z,0
2017-08-25T00:22:30.020Z,0
2017-08-25T00:23:10.555Z,0
2017-08-25T00:23:51.091Z,0
2017-08-25T00:24:31.626Z,0
2017-08-25T00:25:12.167Z,0
2017-08-25T00:25:52.704Z,0
2017-08-25T00:26:33.243Z,0
2017-08-25T00:27:13.783Z,0
2017-08-25T00:27:54.322Z,0
2017-08-25T00:28:34.860Z,0
2017-08-25T00:29:15.391Z,0
2017-08-25T00:29:55.931Z,0
2017-08-25T00:30:36.471Z,0
2017-08-25T00:31:17.009Z,0
2017-08-25T00:31:57.545Z,0
2017-08-25T00:32:38.083Z,0
2017-08-25T00:33:18.619Z,0
2017-08-25T00:33:59.157Z,0
2017-08-25T00:34:39.741Z,0
2017-08-25T00:35:20.285Z,0
2017-08-25T00:36:00.810Z,0
2017-08-25T00:36:41.342Z,0
2017-08-25T00:37:21.879Z,0
2017-08-25T00:38:02.417Z,0
2017-08-25T00:38:42.955Z,0
2017-08-25T00:39:23.496Z,0
2017-08-25T00:40:04.012Z,0
2017-08-25T00:40:44.550Z,0
2017-08-25T00:41:25.094Z,0
2017-08-25T00:42:05.627Z,0
2017-08-25T00:42:46.171Z,0
2017-08-25T00:43:26.709Z,0
2017-08-25T00:44:07.245Z,0
2017-08-25T00:44:47.779Z,0
2017-08-25T00:45:28.317Z,0
2017-08-25T00:46:08.849Z,0
2017-08-25T00:46:49.387Z,0
2017-08-25T00:47:29.926Z,0
2017-08-25T00:48:10.463Z,0
2017-08-25T00:48:50.992Z,0
2017-08-25T00:49:31.528Z,0
2017-08-25T00:50:12.063Z,0
2017-08-25T00:50:52.602Z,0
2017-08-25T00:51:33.147Z,0
2017-08-25T00:52:13.663Z,0
2017-08-25T00:52:54.194Z,0
2017-08-25T00:53:34.728Z,0
2017-08-25T00:54:15.265Z,0
2017-08-25T00:54:55.809Z,0
2017-08-25T00:55:36.345Z,0
2017-08-25T00:56:16.914Z,0
2017-08-25T00:56:57.454Z,0
2017-08-25T00:57:37.994Z,0
2017-08-25T00:58:18.526Z,0
2017-08-25T00:58:59.098Z,0
2017-08-25T00:59:39.614Z,0
2017-08-25T01:00:20.144Z,0
2017-08-25T01:01:00.681Z,0
2017-08-25T01:01:41.219Z,0
2017-08-25T01:02:21.759Z,0
2017-08-25T01:03:02.293Z,0
2017-08-25T01:03:42.827Z,0
2017-08-25T01:04:23.358Z,0
2017-08-25T01:05:03.894Z,0
2017-08-25T01:05:44.427Z,0
2017-08-25T01:06:24.956Z,0
2017-08-25T01:07:05.492Z,0
2017-08-25T01:07:46.066Z,0
2017-08-25T01:08:26.609Z,0
2017-08-25T01:09:07.143Z,0
2017-08-25T01:09:47.683Z,0
2017-08-25T01:10:28.219Z,0
2017-08-25T01:11:08.754Z,0
2017-08-25T01:11:49.283Z,0
2017-08-25T01:12:29.818Z,0
2017-08-25T01:13:10.356Z,0
2017-08-25T01:13:50.884Z,0
2017-08-25T01:14:31.425Z,0
2017-08-25T01:15:11.967Z,0
2017-08-25T01:15:52.511Z,0
2017-08-25T01:16:33.034Z,0
2017-08-25T01:17:13.572Z,0
2017-08-25T01:17:54.116Z,0
2017-08-25T01:18:34.650Z,0
2017-08-25T01:19:15.182Z,0
2017-08-25T01:19:55.726Z,0
2017-08-25T01:20:36.258Z,0
2017-08-25T01:21:16.791Z,0
2017-08-25T01:21:57.326Z,0
2017-08-25T01:22:37.867Z,0
2017-08-25T01:23:18.400Z,0
2017-08-25T01:23:58.943Z,0
2017-08-25T01:24:39.495Z,0
2017-08-25T01:25:20.015Z,0
2017-08-25T01:26:00.554Z,0
2017-08-25T01:26:41.093Z,0
2017-08-25T01:27:21.635Z,0
2017-08-25T01:28:02.175Z,0
2017-08-25T01:28:42.707Z,0
2017-08-25T01:29:23.249Z,0
2017-08-25T01:30:03.779Z,0
2017-08-25T01:30:44.318Z,0
2017-08-25T01:31:24.844Z,0
2017-08-25T01:32:05.398Z,0
2017-08-25T01:32:45.936Z,0
2017-08-25T01:33:26.471Z,0
2017-08-25T01:34:07.025Z,0
2017-08-25T01:34:47.533Z,0
2017-08-25T01:35:28.074Z,0
2017-08-25T01:36:08.604Z,0
2017-08-25T01:36:49.140Z,0
2017-08-25T01:37:29.674Z,0
2017-08-25T01:38:10.213Z,0
2017-08-25T01:38:50.756Z,0
2017-08-25T01:39:31.295Z,0
2017-08-25T01:40:11.842Z,0
2017-08-25T01:40:52.368Z,0
2017-08-25T01:41:32.904Z,0
2017-08-25T01:42:13.444Z,0
2017-08-25T01:42:53.975Z,0
2017-08-25T01:43:34.505Z,0
2017-08-25T01:44:15.047Z,0
2017-08-25T01:44:55.573Z,0
2017-08-25T01:45:36.108Z,0
2017-08-25T01:46:16.647Z,0
2017-08-25T01:46:57.182Z,0
2017-08-25T01:47:37.714Z,0
2017-08-25T01:48:18.250Z,0
2017-08-25T01:48:58.775Z,0
2017-08-25T01:49:39.311Z,0
2017-08-25T01:50:19.850Z,0
2017-08-25T01:51:00.388Z,0
2017-08-25T01:51:40.929Z,0
2017-08-25T01:52:21.456Z,0
2017-08-25T01:53:01.988Z,0
2017-08-25T01:53:42.526Z,0
2017-08-25T01:54:23.064Z,0
2017-08-25T01:55:03.608Z,0
2017-08-25T01:55:44.143Z,0
2017-08-25T01:56:24.664Z,0
2017-08-25T01:57:05.202Z,0
2017-08-25T01:57:45.733Z,0
2017-08-25T01:58:26.270Z,0
2017-08-25T01:59:06.811Z,0
2017-08-25T01:59:47.338Z,0
2017-08-25T02:00:27.875Z,0
2017-08-25T02:01:08.413Z,0
2017-08-25T02:01:48.945Z,0
2017-08-25T02:02:29.486Z,0
2017-08-25T02:03:10.026Z,0
2017-08-25T02:03:50.562Z,0
2017-08-25T02:04:31.104Z,0
2017-08-25T02:05:11.643Z,0
2017-08-25T02:05:52.178Z,0
2017-08-25T02:06:32.710Z,0
2017-08-25T02:07:13.249Z,0
2017-08-25T02:07:53.787Z,0
2017-08-25T02:08:34.325Z,0
2017-08-25T02:09:14.867Z,0
2017-08-25T02:09:55.405Z,0
2017-08-25T02:10:35.947Z,0
2017-08-25T02:11:16.506Z,0
2017-08-25T02:11:57.046Z,0
2017-08-25T02:12:37.609Z,0
2017-08-25T02:13:18.148Z,0
2017-08-25T02:13:58.686Z,0
2017-08-25T02:14:39.227Z,0
2017-08-25T02:15:19.766Z,0
2017-08-25T02:16:00.295Z,0
2017-08-25T02:16:40.833Z,0
2017-08-25T02:17:21.374Z,0
2017-08-25T02:18:01.910Z,0
2017-08-25T02:18:42.459Z,0
2017-08-25T02:19:22.981Z,0
2017-08-25T02:20:03.523Z,0
2017-08-25T02:20:44.052Z,0
2017-08-25T02:21:24.589Z,0
2017-08-25T02:22:05.129Z,0
2017-08-25T02:22:45.668Z,0
2017-08-25T02:23:26.200Z,0
2017-08-25T02:24:06.730Z,0
2017-08-25T02:24:47.277Z,0
2017-08-25T02:25:27.808Z,0
2017-08-25T02:26:08.345Z,0
2017-08-25T02:26:48.882Z,0
2017-08-25T02:27:29.419Z,0
2017-08-25T02:28:09.965Z,0
2017-08-25T02:28:50.501Z,0
2017-08-25T02:29:31.040Z,0
2017-08-25T02:30:11.573Z,0
2017-08-25T02:30:52.107Z,0
2017-08-25T02:31:32.643Z,0
2017-08-25T02:32:13.188Z,0
2017-08-25T02:32:53.722Z,0
2017-08-25T02:33:34.257Z,0
2017-08-25T02:34:14.797Z,0
2017-08-25T02:34:55.334Z,0
2017-08-25T02:35:35.870Z,0
2017-08-25T02:36:16.405Z,0
2017-08-25T02:36:56.942Z,0
2017-08-25T02:37:37.479Z,0
2017-08-25T02:38:18.020Z,0
2017-08-25T02:38:58.550Z,0
2017-08-25T02:39:39.089Z,0
2017-08-25T02:40:19.618Z,0
2017-08-25T02:41:00.159Z,0
2017-08-25T02:41:40.695Z,0
2017-08-25T02:42:21.228Z,0
2017-08-25T02:43:01.762Z,0
2017-08-25T02:43:42.296Z,0
2017-08-25T02:44:22.841Z,0
2017-08-25T02:45:03.381Z,0
2017-08-25T02:45:43.914Z,0
2017-08-25T02:46:24.452Z,0
2017-08-25T02:47:04.989Z,0
2017-08-25T02:47:45.530Z,0
2017-08-25T02:48:26.068Z,0
2017-08-25T02:49:06.609Z,0
2017-08-25T02:49:47.201Z,0
2017-08-25T02:50:27.748Z,0
2017-08-25T02:51:08.291Z,0
2017-08-25T02:51:48.835Z,0
2017-08-25T02:52:29.371Z,0
2017-08-25T02:53:09.912Z,0
2017-08-25T02:53:50.463Z,0
2017-08-25T02:54:30.982Z,0
2017-08-25T02:55:11.522Z,0
2017-08-25T02:55:52.060Z,0
2017-08-25T02:56:32.596Z,0
2017-08-25T02:57:13.136Z,0
2017-08-25T02:57:53.676Z,0
2017-08-25T02:58:34.209Z,0
2017-08-25T02:59:14.749Z,0
2017-08-25T02:59:55.287Z,0
2017-08-25T03:00:35.823Z,0
2017-08-25T03:01:16.364Z,0
2017-08-25T03:01:56.907Z,0
2017-08-25T03:02:37.439Z,0
2017-08-25T03:03:17.978Z,0
2017-08-25T03:03:58.514Z,0
2017-08-25T03:04:39.045Z,0
2017-08-25T03:05:19.582Z,0
2017-08-25T03:06:00.118Z,0
2017-08-25T03:06:40.651Z,0
2017-08-25T03:07:21.185Z,0
2017-08-25T03:08:01.720Z,0
2017-08-25T03:08:42.248Z,0
2017-08-25T03:09:22.777Z,0
2017-08-25T03:10:03.323Z,0
2017-08-25T03:10:43.865Z,0
2017-08-25T03:11:24.405Z,0
2017-08-25T03:12:04.940Z,0
2017-08-25T03:12:45.472Z,0
2017-08-25T03:13:26.010Z,0
2017-08-25T03:14:06.547Z,0
2017-08-25T03:14:47.083Z,0
2017-08-25T03:15:27.627Z,0
2017-08-25T03:16:08.161Z,0
2017-08-25T03:16:48.701Z,0
2017-08-25T03:17:29.243Z,0
2017-08-25T03:18:09.776Z,0
2017-08-25T03:18:50.315Z,0
2017-08-25T03:19:30.841Z,0
2017-08-25T03:20:11.381Z,0
2017-08-25T03:20:51.917Z,0
2017-08-25T03:21:32.458Z,0
2017-08-25T03:22:12.997Z,0
2017-08-25T03:22:53.528Z,0
2017-08-25T03:23:34.057Z,0
2017-08-25T03:24:14.594Z,0
2017-08-25T03:24:55.138Z,0
2017-08-25T03:25:35.678Z,0
2017-08-25T03:26:16.207Z,0
2017-08-25T03:26:56.753Z,0
2017-08-25T03:27:37.292Z,0
2017-08-25T03:28:17.833Z,0
2017-08-25T03:28:58.364Z,0
2017-08-25T03:29:38.895Z,0
2017-08-25T03:30:19.459Z,0
2017-08-25T03:30:59.995Z,0
2017-08-25T03:31:40.534Z,0
2017-08-25T03:32:21.058Z,0
2017-08-25T03:33:01.613Z,0
2017-08-25T03:33:42.127Z,0
2017-08-25T03:34:22.664Z,0
2017-08-25T03:35:03.200Z,0
2017-08-25T03:35:43.744Z,0
2017-08-25T03:36:24.281Z,0
2017-08-25T03:37:04.824Z,0
2017-08-25T03:37:45.352Z,0
2017-08-25T03:38:25.877Z,0
2017-08-25T03:39:06.411Z,0
2017-08-25T03:39:46.956Z,0
2017-08-25T03:40:27.498Z,0
2017-08-25T03:41:08.036Z,0
2017-08-25T03:41:48.605Z,0
2017-08-25T03:42:29.274Z,0
2017-08-25T03:43:09.961Z,0
2017-08-25T03:43:50.617Z,0
2017-08-25T03:44:31.157Z,0
2017-08-25T03:45:11.692Z,0
2017-08-25T03:45:52.248Z,0
2017-08-25T03:46:32.785Z,0
2017-08-25T03:47:13.324Z,0
2017-08-25T03:47:53.864Z,0
2017-08-25T03:48:34.403Z,0
2017-08-25T03:49:14.963Z,0
2017-08-25T03:49:55.532Z,0
2017-08-25T03:50:36.069Z,0
2017-08-25T03:51:16.607Z,0
2017-08-25T03:51:57.149Z,0
2017-08-25T03:52:37.703Z,0
2017-08-25T03:53:18.227Z,0
2017-08-25T03:53:58.767Z,0
2017-08-25T03:54:39.307Z,0
2017-08-25T03:55:19.848Z,0
2017-08-25T03:56:00.387Z,0
2017-08-25T03:56:40.927Z,0
2017-08-25T03:57:21.467Z,0
2017-08-25T03:58:02.049Z,0
2017-08-25T03:58:42.577Z,0
2017-08-25T03:59:23.152Z,0
2017-08-25T04:00:03.678Z,0
2017-08-25T04:00:44.224Z,0
2017-08-25T04:01:24.759Z,0
2017-08-25T04:02:05.329Z,0
2017-08-25T04:02:45.872Z,0
2017-08-25T04:03:26.400Z,0
2017-08-25T04:04:06.925Z,0
2017-08-25T04:04:47.462Z,0
2017-08-25T04:05:28.013Z,0
2017-08-25T04:06:08.533Z,0
2017-08-25T04:06:49.072Z,0
2017-08-25T04:07:29.606Z,0
2017-08-25T04:08:10.143Z,0
2017-08-25T04:08:50.680Z,0
2017-08-25T04:09:31.211Z,0
2017-08-25T04:10:11.853Z,0
2017-08-25T04:10:52.380Z,4
2017-08-25T04:11:32.938Z,4
2017-08-25T04:12:13.487Z,4
2017-08-25T04:12:54.021Z,4
2017-08-25T04:13:34.551Z,0
2017-08-25T04:14:15.122Z,4
2017-08-25T04:14:55.663Z,4
2017-08-25T04:15:36.197Z,4
2017-08-25T04:16:16.731Z,8
2017-08-25T04:16:57.269Z,4
2017-08-25T04:17:37.804Z,8
2017-08-25T04:18:18.363Z,8
2017-08-25T04:18:58.906Z,8
2017-08-25T04:19:39.477Z,12
2017-08-25T04:20:20.016Z,12
2017-08-25T04:21:00.550Z,12
2017-08-25T04:21:41.087Z,12
2017-08-25T04:22:21.619Z,16
2017-08-25T04:23:02.159Z,16
2017-08-25T04:23:42.701Z,20
2017-08-25T04:24:23.222Z,20
2017-08-25T04:25:03.764Z,24
2017-08-25T04:25:44.304Z,28
2017-08-25T04:26:24.839Z,24
2017-08-25T04:27:05.378Z,28
2017-08-25T04:27:45.917Z,28
2017-08-25T04:28:26.452Z,36
2017-08-25T04:29:06.991Z,32
2017-08-25T04:29:47.530Z,36
2017-08-25T04:30:28.067Z,40
2017-08-25T04:31:08.613Z,40
2017-08-25T04:31:49.150Z,44
2017-08-25T04:32:29.692Z,44
2017-08-25T04:33:10.230Z,44
2017-08-25T04:33:50.780Z,48
2017-08-25T04:34:31.315Z,52
2017-08-25T04:35:11.849Z,56
2017-08-25T04:35:52.384Z,60
2017-08-25T04:36:32.928Z,68
2017-08-25T04:37:13.467Z,72
2017-08-25T04:37:54.006Z,80
2017-08-25T04:38:34.546Z,88
2017-08-25T04:39:15.084Z,92
2017-08-25T04:39:55.618Z,96
2017-08-25T04:40:36.155Z,108
2017-08-25T04:41:16.693Z,112
2017-08-25T04:41:57.233Z,124
2017-08-25T04:42:37.805Z,128
2017-08-25T04:43:18.445Z,140
2017-08-25T04:43:59.277Z,148
2017-08-25T04:44:39.783Z,152
2017-08-25T04:45:20.789Z,164
2017-08-25T04:46:01.323Z,172
2017-08-25T04:46:41.862Z,180
2017-08-25T04:47:22.440Z,192
2017-08-25T04:48:02.998Z,200
2017-08-25T04:48:43.556Z,216
2017-08-25T04:49:24.101Z,228
2017-08-25T04:50:05.524Z,236
2017-08-25T04:50:46.606Z,248
2017-08-25T04:51:27.157Z,256
2017-08-25T04:52:07.702Z,272
2017-08-25T04:52:48.230Z,284
2017-08-25T04:53:28.768Z,300
2017-08-25T04:54:09.304Z,312
2017-08-25T04:54:49.841Z,324
2017-08-25T04:55:30.378Z,336
2017-08-25T04:56:10.908Z,348
2017-08-25T04:56:51.463Z,360
2017-08-25T04:57:32.005Z,372
2017-08-25T04:58:12.540Z,392
2017-08-25T04:58:53.077Z,412
2017-08-25T04:59:33.618Z,432
2017-08-25T05:00:14.154Z,448
2017-08-25T05:00:54.694Z,464
2017-08-25T05:01:35.221Z,484
2017-08-25T05:02:15.761Z,504
2017-08-25T05:02:56.296Z,520
2017-08-25T05:03:36.820Z,540
2017-08-25T05:04:17.355Z,544
2017-08-25T05:04:57.889Z,552
2017-08-25T05:05:38.425Z,564
2017-08-25T05:06:18.957Z,572
2017-08-25T05:06:59.493Z,592
2017-08-25T05:07:40.026Z,616
2017-08-25T05:08:20.563Z,644
2017-08-25T05:09:01.105Z,676
2017-08-25T05:09:41.644Z,716
2017-08-25T05:10:22.181Z,764
2017-08-25T05:11:02.736Z,800
2017-08-25T05:11:43.274Z,844
2017-08-25T05:12:23.801Z,904
2017-08-25T05:13:04.359Z,956
2017-08-25T05:13:44.879Z,976
2017-08-25T05:14:25.417Z,984
2017-08-25T05:15:05.957Z,992
2017-08-25T05:15:46.496Z,1012
2017-08-25T05:16:27.026Z,1036
2017-08-25T05:17:07.565Z,1044
2017-08-25T05:17:48.106Z,1052
2017-08-25T05:18:28.640Z,1060
2017-08-25T05:19:09.174Z,1060
2017-08-25T05:19:49.713Z,1076
2017-08-25T05:20:30.244Z,1076
2017-08-25T05:21:10.787Z,1072
2017-08-25T05:21:51.327Z,1060
2017-08-25T05:22:31.865Z,1060
2017-08-25T05:23:12.399Z,1048
2017-08-25T05:23:52.942Z,1052
2017-08-25T05:24:33.487Z,1048
2017-08-25T05:25:14.021Z,1036
2017-08-25T05:25:54.558Z,996
2017-08-25T05:26:35.086Z,956
2017-08-25T05:27:15.627Z,944
2017-08-25T05:27:56.142Z,944
2017-08-25T05:28:36.698Z,940
2017-08-25T05:29:17.219Z,916
2017-08-25T05:29:57.750Z,904
2017-08-25T05:30:38.285Z,912
2017-08-25T05:31:18.826Z,948
2017-08-25T05:31:59.364Z,1028
2017-08-25T05:32:39.896Z,1124
2017-08-25T05:33:20.432Z,1204
2017-08-25T05:34:00.973Z,1244
2017-08-25T05:34:41.513Z,1252
2017-08-25T05:35:22.041Z,1280
2017-08-25T05:36:02.588Z,1320
2017-08-25T05:36:43.136Z,1340
2017-08-25T05:37:23.648Z,1340
2017-08-25T05:38:04.186Z,1380
2017-08-25T05:38:44.726Z,1440
2017-08-25T05:39:25.264Z,1500
2017-08-25T05:40:05.804Z,1556
2017-08-25T05:40:46.344Z,1596
2017-08-25T05:41:26.889Z,1624
2017-08-25T05:42:07.426Z,1636
2017-08-25T05:42:47.958Z,1660
2017-08-25T05:43:28.492Z,1672
2017-08-25T05:44:09.034Z,1688
2017-08-25T05:44:49.571Z,1688
2017-08-25T05:45:30.117Z,1672
2017-08-25T05:46:10.647Z,1668
2017-08-25T05:46:51.185Z,1632
2017-08-25T05:47:31.732Z,1600
2017-08-25T05:48:12.258Z,1572
2017-08-25T05:48:52.821Z,1544
2017-08-25T05:49:33.359Z,1500
2017-08-25T05:50:13.897Z,1440
2017-08-25T05:50:54.439Z,1384
2017-08-25T05:51:34.976Z,1336
2017-08-25T05:52:15.519Z,1340
2017-08-25T05:52:56.055Z,1380
2017-08-25T05:53:36.587Z,1428
2017-08-25T05:54:17.150Z,1484
2017-08-25T05:54:57.675Z,1552
2017-08-25T05:55:38.209Z,1620
2017-08-25T05:56:18.750Z,1676
2017-08-25T05:56:59.372Z,1760
2017-08-25T05:57:39.914Z,1820
2017-08-25T05:58:20.446Z,1864
2017-08-25T05:59:00.984Z,1892
2017-08-25T05:59:41.521Z,1904
2017-08-25T06:00:22.070Z,1904
2017-08-25T06:01:02.610Z,1916
2017-08-25T06:01:43.154Z,1956
2017-08-25T06:02:23.685Z,1996
2017-08-25T06:03:04.202Z,2004
2017-08-25T06:03:44.729Z,2040
2017-08-25T06:04:25.256Z,2072
2017-08-25T06:05:05.790Z,2036
2017-08-25T06:05:46.326Z,1928
2017-08-25T06:06:26.869Z,1856
2017-08-25T06:07:07.406Z,1820
2017-08-25T06:07:47.939Z,1840
2017-08-25T06:08:28.501Z,1912
2017-08-25T06:09:09.024Z,1976
2017-08-25T06:09:49.565Z,2032
2017-08-25T06:10:30.108Z,2108
2017-08-25T06:11:10.631Z,2200
2017-08-25T06:11:51.177Z,2260
2017-08-25T06:12:31.748Z,2312
2017-08-25T06:13:12.286Z,2392
2017-08-25T06:13:52.841Z,2484
2017-08-25T06:14:33.396Z,2592
2017-08-25T06:15:13.925Z,2720
2017-08-25T06:15:54.450Z,2868
2017-08-25T06:16:34.991Z,2924
2017-08-25T06:17:15.527Z,2956
2017-08-25T06:17:56.067Z,2948
2017-08-25T06:18:36.599Z,2928
2017-08-25T06:19:17.161Z,2864
2017-08-25T06:19:57.722Z,2840
2017-08-25T06:20:38.258Z,2824
2017-08-25T06:21:18.792Z,2840
2017-08-25T06:21:59.385Z,2872
2017-08-25T06:22:39.944Z,2944
2017-08-25T06:23:20.485Z,3092
2017-08-25T06:24:01.019Z,3284
2017-08-25T06:24:41.566Z,3400
2017-08-25T06:25:22.091Z,3396
2017-08-25T06:26:02.623Z,3420
2017-08-25T06:26:43.158Z,3452
2017-08-25T06:27:23.700Z,3404
2017-08-25T06:28:04.238Z,3320
2017-08-25T06:28:44.777Z,3076
2017-08-25T06:29:25.309Z,2944
2017-08-25T06:30:05.847Z,2892
2017-08-25T06:30:46.385Z,2824
2017-08-25T06:31:26.924Z,2792
2017-08-25T06:32:07.461Z,2664
2017-08-25T06:32:47.995Z,2528
2017-08-25T06:33:28.530Z,2440
2017-08-25T06:34:09.074Z,2448
2017-08-25T06:34:49.604Z,2452
2017-08-25T06:35:30.150Z,2528
2017-08-25T06:36:10.733Z,2668
2017-08-25T06:36:51.230Z,2836
2017-08-25T06:37:31.767Z,2972
2017-08-25T06:38:12.300Z,3132
2017-08-25T06:38:52.841Z,3220
2017-08-25T06:39:33.370Z,3164
2017-08-25T06:40:13.919Z,3100
2017-08-25T06:40:54.456Z,3044
2017-08-25T06:41:34.998Z,3072
2017-08-25T06:42:15.534Z,3204
2017-08-25T06:42:56.074Z,3276
2017-08-25T06:43:36.607Z,3268
2017-08-25T06:44:17.148Z,3268
2017-08-25T06:44:57.682Z,3296
2017-08-25T06:45:38.225Z,3332
2017-08-25T06:46:18.770Z,3352
2017-08-25T06:46:59.316Z,3344
2017-08-25T06:47:39.862Z,3364
2017-08-25T06:48:20.399Z,3372
2017-08-25T06:49:00.919Z,3376
2017-08-25T06:49:41.457Z,3352
2017-08-25T06:50:22.000Z,3320
2017-08-25T06:51:02.525Z,3312
2017-08-25T06:51:43.064Z,3316
2017-08-25T06:52:23.604Z,3364
2017-08-25T06:53:04.150Z,3440
2017-08-25T06:53:44.679Z,3544
2017-08-25T06:54:25.205Z,3668
2017-08-25T06:55:05.753Z,3764
2017-08-25T06:55:46.287Z,3860
2017-08-25T06:56:26.869Z,3964
2017-08-25T06:57:07.403Z,4012
2017-08-25T06:57:47.942Z,4060
2017-08-25T06:58:28.485Z,4124
2017-08-25T06:59:09.022Z,4216
2017-08-25T06:59:49.572Z,4316
2017-08-25T07:00:30.104Z,4356
2017-08-25T07:01:10.655Z,4396
2017-08-25T07:01:51.191Z,4488
2017-08-25T07:02:31.731Z,4568
2017-08-25T07:03:12.269Z,4620
2017-08-25T07:03:52.814Z,4604
2017-08-25T07:04:33.366Z,4640
2017-08-25T07:05:13.918Z,4752
2017-08-25T07:05:54.467Z,4864
2017-08-25T07:06:35.020Z,4944
2017-08-25T07:07:15.556Z,5056
2017-08-25T07:07:56.093Z,5308
2017-08-25T07:08:36.641Z,5664
2017-08-25T07:09:17.181Z,5988
2017-08-25T07:09:57.711Z,6120
2017-08-25T07:10:38.240Z,5980
2017-08-25T07:11:18.780Z,5848
2017-08-25T07:11:59.314Z,5656
2017-08-25T07:12:39.840Z,5436
2017-08-25T07:13:20.367Z,5316
2017-08-25T07:14:00.891Z,5224
2017-08-25T07:14:41.430Z,5064
2017-08-25T07:15:21.963Z,4896
2017-08-25T07:16:02.498Z,4820
2017-08-25T07:16:43.047Z,4620
2017-08-25T07:17:23.589Z,4656
2017-08-25T07:18:04.122Z,4764
2017-08-25T07:18:44.672Z,4920
2017-08-25T07:19:25.200Z,5048
2017-08-25T07:20:05.739Z,5128
2017-08-25T07:20:46.279Z,5268
2017-08-25T07:21:26.808Z,5340
2017-08-25T07:22:07.351Z,5332
2017-08-25T07:22:47.891Z,5324
2017-08-25T07:23:28.422Z,5276
2017-08-25T07:24:08.964Z,5312
2017-08-25T07:24:49.501Z,5404
2017-08-25T07:25:30.040Z,5568
2017-08-25T07:26:10.583Z,5624
2017-08-25T07:26:51.124Z,5748
2017-08-25T07:27:31.660Z,5784
2017-08-25T07:28:12.197Z,5856
2017-08-25T07:28:52.739Z,5832
2017-08-25T07:29:33.282Z,5788
2017-08-25T07:30:13.820Z,5756
2017-08-25T07:30:54.358Z,5980
2017-08-25T07:31:34.896Z,6080
2017-08-25T07:32:15.436Z,6136
2017-08-25T07:32:55.975Z,6200
2017-08-25T07:33:36.516Z,6212
2017-08-25T07:34:17.062Z,6300
2017-08-25T07:34:57.605Z,6508
2017-08-25T07:35:38.158Z,6684
2017-08-25T07:36:18.700Z,6828
2017-08-25T07:36:59.238Z,6864
2017-08-25T07:37:39.777Z,6924
2017-08-25T07:38:20.317Z,6900
2017-08-25T07:39:00.854Z,7072
2017-08-25T07:39:41.396Z,7216
2017-08-25T07:40:21.936Z,7496
2017-08-25T07:41:02.480Z,7500
2017-08-25T07:41:43.035Z,7756
2017-08-25T07:42:23.576Z,7960
2017-08-25T07:43:04.113Z,9392
2017-08-25T07:43:44.642Z,9824
2017-08-25T07:44:25.177Z,11060
2017-08-25T07:45:05.716Z,11568
2017-08-25T07:45:46.257Z,13212
2017-08-25T07:46:26.802Z,16288
2017-08-25T07:47:07.345Z,15808
2017-08-25T07:47:47.887Z,17472
2017-08-25T07:48:28.430Z,18624
2017-08-25T07:49:08.965Z,21920
2017-08-25T07:49:49.502Z,23168
2017-08-25T07:50:30.040Z,22144
2017-08-25T07:51:10.582Z,19040
2017-08-25T07:51:51.119Z,25088
2017-08-25T07:52:31.656Z,24704
2017-08-25T07:53:12.186Z,25280
2017-08-25T07:53:52.719Z,22496
2017-08-25T07:54:33.253Z,25440
2017-08-25T07:55:13.780Z,23616
2017-08-25T07:55:54.318Z,24288
2017-08-25T07:56:34.858Z,21632
2017-08-25T07:57:15.403Z,21504
2017-08-25T07:57:55.946Z,22464
2017-08-25T07:58:36.486Z,26176
2017-08-25T07:59:17.029Z,25760
2017-08-25T07:59:57.579Z,24320
2017-08-25T08:00:38.129Z,19808
2017-08-25T08:01:18.664Z,23104
2017-08-25T08:01:59.230Z,25056
2017-08-25T08:02:39.760Z,21888
2017-08-25T08:03:20.288Z,22272
2017-08-25T08:04:00.831Z,22464
2017-08-25T08:04:41.418Z,19200
2017-08-25T08:05:21.966Z,23360
2017-08-25T08:06:02.506Z,22208
2017-08-25T08:06:43.043Z,26176
2017-08-25T08:07:23.584Z,26816
2017-08-25T08:08:04.128Z,20672
2017-08-25T08:08:44.672Z,24288
2017-08-25T08:09:25.214Z,24512
2017-08-25T08:10:05.751Z,21472
2017-08-25T08:10:46.292Z,22560
2017-08-25T08:11:26.842Z,23520
2017-08-25T08:12:07.374Z,23744
2017-08-25T08:12:47.913Z,22432
2017-08-25T08:13:28.452Z,25088
2017-08-25T08:14:09.001Z,22240
2017-08-25T08:14:49.542Z,24704
2017-08-25T08:15:30.088Z,26112
2017-08-25T08:16:10.633Z,24384
2017-08-25T08:16:51.182Z,29312
2017-08-25T08:17:31.731Z,28960
2017-08-25T08:18:12.275Z,28512
2017-08-25T08:18:52.806Z,28128
2017-08-25T08:19:33.377Z,27936
2017-08-25T08:20:13.921Z,22400
2017-08-25T08:20:54.466Z,18976
2017-08-25T08:21:35.005Z,23136
2017-08-25T08:22:15.545Z,18080
2017-08-25T08:22:56.082Z,20224
2017-08-25T08:23:36.619Z,24832
2017-08-25T08:24:17.161Z,22272
2017-08-25T08:24:57.702Z,17056
2017-08-25T08:25:38.244Z,11288
2017-08-25T08:26:18.785Z,16544
2017-08-25T08:26:59.328Z,25344
2017-08-25T08:27:39.868Z,29024
2017-08-25T08:28:20.414Z,30464
2017-08-25T08:29:00.960Z,28096
2017-08-25T08:29:41.491Z,26816
2017-08-25T08:30:22.047Z,29408
2017-08-25T08:31:02.582Z,27968
2017-08-25T08:31:43.122Z,25632
2017-08-25T08:32:23.662Z,15748
2017-08-25T08:33:04.201Z,17088
2017-08-25T08:33:44.749Z,12880
2017-08-25T08:34:25.291Z,13860
2017-08-25T08:35:05.840Z,19168
2017-08-25T08:35:46.381Z,18048
2017-08-25T08:36:26.930Z,27680
2017-08-25T08:37:07.469Z,21824
2017-08-25T08:37:48.018Z,29120
2017-08-25T08:38:28.559Z,14816
2017-08-25T08:39:09.098Z,14172
2017-08-25T08:39:49.640Z,12844
2017-08-25T08:40:30.178Z,23808
2017-08-25T08:41:10.721Z,22432
2017-08-25T08:41:51.265Z,14892
2017-08-25T08:42:31.813Z,14948
2017-08-25T08:43:12.360Z,13232
2017-08-25T08:43:52.904Z,14088
2017-08-25T08:44:33.449Z,14192
2017-08-25T08:45:14.001Z,14408
2017-08-25T08:45:54.540Z,13444
2017-08-25T08:46:35.081Z,14368
2017-08-25T08:47:15.630Z,14824
2017-08-25T08:47:56.176Z,15076
2017-08-25T08:48:36.717Z,15436
2017-08-25T08:49:17.261Z,14664
2017-08-25T08:49:57.789Z,14628
2017-08-25T08:50:38.334Z,14068
2017-08-25T08:51:18.876Z,13440
2017-08-25T08:51:59.421Z,13696
2017-08-25T08:52:39.962Z,13804
2017-08-25T08:53:20.501Z,13580
2017-08-25T08:54:01.046Z,13180
2017-08-25T08:54:41.588Z,12980
2017-08-25T08:55:22.138Z,13096
2017-08-25T08:56:02.681Z,12800
2017-08-25T08:56:43.220Z,12412
2017-08-25T08:57:23.760Z,12124
2017-08-25T08:58:04.300Z,12120
2017-08-25T08:58:44.832Z,12156
2017-08-25T08:59:25.381Z,12140
2017-08-25T09:00:05.928Z,11984
2017-08-25T09:00:46.470Z,11912
2017-08-25T09:01:27.021Z,12188
2017-08-25T09:02:07.566Z,12660
2017-08-25T09:02:48.109Z,12960
2017-08-25T09:03:28.648Z,13192
2017-08-25T09:04:09.193Z,13784
2017-08-25T09:04:49.733Z,16512
2017-08-25T09:05:30.271Z,23840
2017-08-25T09:06:10.814Z,33088
2017-08-25T09:06:51.358Z,35424
2017-08-25T09:07:31.901Z,35168
2017-08-25T09:08:12.461Z,30656
2017-08-25T09:08:52.991Z,22624
2017-08-25T09:09:33.538Z,16800
2017-08-25T09:10:14.081Z,14880
2017-08-25T09:10:54.631Z,14552
2017-08-25T09:11:35.180Z,14392
2017-08-25T09:12:15.722Z,14028
2017-08-25T09:12:56.267Z,13772
2017-08-25T09:13:36.808Z,13200
2017-08-25T09:14:17.349Z,13076
2017-08-25T09:14:57.894Z,12684
2017-08-25T09:15:38.440Z,12876
2017-08-25T09:16:18.984Z,13108
2017-08-25T09:16:59.526Z,13604
2017-08-25T09:17:40.094Z,14164
2017-08-25T09:18:20.644Z,14584
2017-08-25T09:19:01.194Z,15188
2017-08-25T09:19:41.732Z,16392
2017-08-25T09:20:22.282Z,18176
2017-08-25T09:21:02.817Z,22528
2017-08-25T09:21:43.360Z,25664
2017-08-25T09:22:23.907Z,31424
2017-08-25T09:23:04.453Z,34400
2017-08-25T09:23:45.004Z,38848
2017-08-25T09:24:25.556Z,39232